« Back
NWS Peachtree City, Ga » Text Product » MCN Terminal Aerodrome Forecast


Printer-friendly Version
Current Version              Previous Versions:   1  2  3  4  5  6  7  8  9  

Terminal Aerodrome Forecast

885
FTUS42 KFFC 282200 AAB
TAFMCN
TAF AMD
KMCN 282205Z 2822/2918 28010G18KT P6SM VCTS SCT060CB
     FM290000 29009KT P6SM SCT080
     FM290400 31006KT P6SM FEW120
     FM291600 33009G16KT P6SM SCT050=



USA.gov is the U.S. government's official web portal to all federal, state and local government web resources and services.